Gaiuut, Mongolia
Current Conditions -  °F | °C
As of 5:30 PM on Monday 24 Nov 2014 (Local Time) from ZMUB Reporting Station
Clear Clear  
Wind Chill:   Ceiling: Unl
Heat Index: 19°   Visibility: 6mi
Dew Point:   Wind: 11mph
Humidity: 42%   Direction: 150°SSE
Pressure: 29.74"   Gusts: NA
Location:  46.7°N, 100.13°E
Report Text: ZMUB 240930Z 15005MPS CAVOK M07/M18 Q1007 NOSIG RMK QFE649.1 39
Loading
Personal Weather Stations






























Interactive Weather Map New forecast layout! Learn more

10-Day Weather Forecast

Advertisements
Track Severe Weather on mobile